createdAt,value
2017-04-15T00:00:23.200Z,8.44
2017-04-15T00:01:24.432Z,8.48
2017-04-15T00:02:25.707Z,8.48
2017-04-15T00:03:26.948Z,8.47
2017-04-15T00:04:28.196Z,8.44
2017-04-15T00:05:29.430Z,8.47
2017-04-15T00:06:30.668Z,8.48
2017-04-15T00:07:31.958Z,8.53
2017-04-15T00:08:33.276Z,8.48
2017-04-15T00:09:34.537Z,8.51
2017-04-15T00:10:35.797Z,8.48
2017-04-15T00:11:37.036Z,8.53
2017-04-15T00:12:38.283Z,8.57
2017-04-15T00:13:39.564Z,8.55
2017-04-15T00:14:40.851Z,8.6
2017-04-15T00:15:42.127Z,8.57
2017-04-15T00:16:43.501Z,8.53
2017-04-15T00:17:44.733Z,8.66
2017-04-15T00:18:45.971Z,8.57
2017-04-15T00:19:47.218Z,8.55
2017-04-15T00:20:48.582Z,8.68
2017-04-15T00:21:49.880Z,8.68
2017-04-15T00:22:51.138Z,8.6
2017-04-15T00:23:52.370Z,8.73
2017-04-15T00:24:53.589Z,8.69
2017-04-15T00:25:54.830Z,8.66
2017-04-15T00:26:56.197Z,8.58
2017-04-15T00:27:57.422Z,8.68
2017-04-15T00:28:58.671Z,8.63
2017-04-15T00:29:59.899Z,8.65
2017-04-15T00:31:01.166Z,8.69
2017-04-15T00:32:02.400Z,8.73
2017-04-15T00:33:03.659Z,8.75
2017-04-15T00:34:04.963Z,8.79
2017-04-15T00:35:06.223Z,8.72
2017-04-15T00:36:07.455Z,8.76
2017-04-15T00:37:08.803Z,8.71
2017-04-15T00:38:10.109Z,8.78
2017-04-15T00:39:11.518Z,8.81
2017-04-15T00:40:12.828Z,8.78
2017-04-15T00:41:14.078Z,8.81
2017-04-15T00:42:15.433Z,8.66
2017-04-15T00:43:16.742Z,8.78
2017-04-15T00:44:17.979Z,8.76
2017-04-15T00:45:19.371Z,8.72
2017-04-15T00:46:20.587Z,8.76
2017-04-15T00:47:21.841Z,8.76
2017-04-15T00:48:23.045Z,8.75
2017-04-15T00:49:24.464Z,8.78
2017-04-15T00:50:25.707Z,8.75
2017-04-15T00:51:26.943Z,8.73
2017-04-15T00:52:28.183Z,8.83
2017-04-15T00:53:29.426Z,8.88
2017-04-15T00:54:30.653Z,8.79
2017-04-15T00:55:31.979Z,8.81
2017-04-15T00:56:33.307Z,8.79
2017-04-15T00:57:34.552Z,8.84
2017-04-15T00:58:35.789Z,8.79
2017-04-15T00:59:37.021Z,8.86
2017-04-15T01:00:38.305Z,8.78
2017-04-15T01:01:39.563Z,8.87
2017-04-15T01:02:40.799Z,8.79
2017-04-15T01:03:42.055Z,8.79
2017-04-15T01:04:43.289Z,8.84
2017-04-15T01:05:44.573Z,8.88
2017-04-15T01:06:45.814Z,8.93
2017-04-15T01:07:47.046Z,8.86
2017-04-15T01:08:48.394Z,8.86
2017-04-15T01:09:49.656Z,8.94
2017-04-15T01:10:50.878Z,8.96
2017-04-15T01:11:52.125Z,8.94
2017-04-15T01:12:53.374Z,9.01
2017-04-15T01:13:54.627Z,8.93
2017-04-15T01:14:55.866Z,8.99
2017-04-15T01:15:57.107Z,8.93
2017-04-15T01:16:58.394Z,8.99
2017-04-15T01:17:59.699Z,8.97
2017-04-15T01:19:00.921Z,8.96
2017-04-15T01:20:02.170Z,9.05
2017-04-15T01:21:03.410Z,9.09
2017-04-15T01:22:04.659Z,9.09
2017-04-15T01:23:06.006Z,9.09
2017-04-15T01:24:07.262Z,9.04
2017-04-15T01:25:08.514Z,9.12
2017-04-15T01:26:09.742Z,9.1
2017-04-15T01:27:10.971Z,9.12
2017-04-15T01:28:12.241Z,9.13
2017-04-15T01:29:13.486Z,9.13
2017-04-15T01:30:14.734Z,9.13
2017-04-15T01:31:15.964Z,9.15
2017-04-15T01:32:17.227Z,9.05
2017-04-15T01:33:18.480Z,9.09
2017-04-15T01:34:19.719Z,9.18
2017-04-15T01:35:20.959Z,9.13
2017-04-15T01:36:22.270Z,9.18
2017-04-15T01:37:23.520Z,9.13
2017-04-15T01:38:24.806Z,9.12
2017-04-15T01:39:26.101Z,9.15
2017-04-15T01:40:27.336Z,9.13
2017-04-15T01:41:28.591Z,9.12
2017-04-15T01:42:29.900Z,9.15
2017-04-15T01:43:31.140Z,9.1
2017-04-15T01:44:32.411Z,9.18
2017-04-15T01:45:33.645Z,9.25
2017-04-15T01:46:34.882Z,9.23
2017-04-15T01:47:36.107Z,9.2
2017-04-15T01:48:37.351Z,9.23
2017-04-15T01:49:38.615Z,9.12
2017-04-15T01:50:39.846Z,9.21
2017-04-15T01:51:41.081Z,9.2
2017-04-15T01:52:42.336Z,9.23
2017-04-15T01:53:43.581Z,9.18
2017-04-15T01:54:44.820Z,9.16
2017-04-15T01:55:46.116Z,9.27
2017-04-15T01:56:47.334Z,9.15
2017-04-15T01:57:48.613Z,9.27
2017-04-15T01:58:49.932Z,9.23
2017-04-15T01:59:51.182Z,9.27
2017-04-15T02:00:52.493Z,9.27
2017-04-15T02:01:53.747Z,9.3
2017-04-15T02:02:55.064Z,9.27
2017-04-15T02:03:56.287Z,9.25
2017-04-15T02:04:57.520Z,9.27
2017-04-15T02:05:58.762Z,9.27
2017-04-15T02:07:00.009Z,9.28
2017-04-15T02:08:01.255Z,9.28
2017-04-15T02:09:02.631Z,9.28
2017-04-15T02:10:03.867Z,9.21
2017-04-15T02:11:05.141Z,9.23
2017-04-15T02:12:06.390Z,9.28
2017-04-15T02:13:07.657Z,9.23
2017-04-15T02:14:08.912Z,9.24
2017-04-15T02:15:10.151Z,9.21
2017-04-15T02:16:11.508Z,9.27
2017-04-15T02:17:12.727Z,9.28
2017-04-15T02:18:13.974Z,9.27
2017-04-15T02:19:15.206Z,9.28
2017-04-15T02:20:16.460Z,9.25
2017-04-15T02:21:17.739Z,9.27
2017-04-15T02:22:18.979Z,9.27
2017-04-15T02:23:20.230Z,9.25
2017-04-15T02:24:21.472Z,9.3
2017-04-15T02:25:22.737Z,9.25
2017-04-15T02:26:23.994Z,9.31
2017-04-15T02:27:25.237Z,9.25
2017-04-15T02:28:26.484Z,9.25
2017-04-15T02:29:27.723Z,9.24
2017-04-15T02:30:28.956Z,9.23
2017-04-15T02:31:30.230Z,9.23
2017-04-15T02:32:31.467Z,9.28
2017-04-15T02:33:32.739Z,9.25
2017-04-15T02:34:34.007Z,9.27
2017-04-15T02:35:35.221Z,9.27
2017-04-15T02:36:36.463Z,9.12
2017-04-15T02:37:37.707Z,9.15
2017-04-15T02:38:38.970Z,9.15
2017-04-15T02:39:40.295Z,9.1
2017-04-15T02:40:41.531Z,9.15
2017-04-15T02:41:42.767Z,9.1
2017-04-15T02:42:44.000Z,9.13
2017-04-15T02:43:45.239Z,9.13
2017-04-15T02:44:46.488Z,9.15
2017-04-15T02:45:47.820Z,9.06
2017-04-15T02:46:49.041Z,9.05
2017-04-15T02:47:50.357Z,9.06
2017-04-15T02:48:51.591Z,8.93
2017-04-15T02:49:52.834Z,9.06
2017-04-15T02:50:54.067Z,8.96
2017-04-15T02:51:55.296Z,8.97
2017-04-15T02:52:56.534Z,8.94
2017-04-15T02:53:57.792Z,8.93
2017-04-15T02:54:59.041Z,9.02
2017-04-15T02:56:00.262Z,8.93
2017-04-15T02:57:01.519Z,8.94
2017-04-15T02:58:02.744Z,8.91
2017-04-15T02:59:04.171Z,8.87
2017-04-15T03:00:05.346Z,8.88
2017-04-15T03:01:06.683Z,8.87
2017-04-15T03:02:07.926Z,8.83
2017-04-15T03:03:09.159Z,8.88
2017-04-15T03:04:10.516Z,8.81
2017-04-15T03:05:11.763Z,8.88
2017-04-15T03:06:13.014Z,8.86
2017-04-15T03:07:14.375Z,8.73
2017-04-15T03:08:15.608Z,8.83
2017-04-15T03:09:17.031Z,8.69
2017-04-15T03:10:18.359Z,8.81
2017-04-15T03:11:19.591Z,8.69
2017-04-15T03:12:20.821Z,8.76
2017-04-15T03:13:22.067Z,8.79
2017-04-15T03:14:23.304Z,8.78
2017-04-15T03:15:24.570Z,8.78
2017-04-15T03:16:25.851Z,8.79
2017-04-15T03:17:27.079Z,8.88
2017-04-15T03:18:28.320Z,8.84
2017-04-15T03:19:29.574Z,8.79
2017-04-15T03:20:31.065Z,8.83
2017-04-15T03:21:32.302Z,8.83
2017-04-15T03:22:33.551Z,8.83
2017-04-15T03:23:34.810Z,8.9
2017-04-15T03:24:36.073Z,8.9
2017-04-15T03:25:37.346Z,8.87
2017-04-15T03:26:38.588Z,8.87
2017-04-15T03:27:39.899Z,8.91
2017-04-15T03:28:41.147Z,8.94
2017-04-15T03:29:42.386Z,8.97
2017-04-15T03:30:43.687Z,8.93
2017-04-15T03:31:44.941Z,8.96
2017-04-15T03:32:46.160Z,8.97
2017-04-15T03:33:47.494Z,8.94
2017-04-15T03:34:48.757Z,8.94
2017-04-15T03:35:50.224Z,8.99
2017-04-15T03:36:51.548Z,8.96
2017-04-15T03:37:52.690Z,9.01
2017-04-15T03:38:53.934Z,9.05
2017-04-15T03:39:55.168Z,9.05
2017-04-15T03:40:56.493Z,9.12
2017-04-15T03:41:57.806Z,9.05
2017-04-15T03:42:58.971Z,9.06
2017-04-15T03:44:00.204Z,9.04
2017-04-15T03:45:01.429Z,9.06
2017-04-15T03:46:02.737Z,9.09
2017-04-15T03:47:03.999Z,9.2
2017-04-15T03:48:05.231Z,9.13
2017-04-15T03:49:06.489Z,9.16
2017-04-15T03:50:07.738Z,9.2
2017-04-15T03:51:08.974Z,9.15
2017-04-15T03:52:10.297Z,9.21
2017-04-15T03:53:11.535Z,9.2
2017-04-15T03:54:12.874Z,9.16
2017-04-15T03:55:14.365Z,9.21
2017-04-15T03:56:15.629Z,9.23
2017-04-15T03:57:16.844Z,9.21
2017-04-15T03:58:18.187Z,9.23
2017-04-15T03:59:19.417Z,9.25
2017-04-15T04:00:20.707Z,9.27
2017-04-15T04:01:21.930Z,9.25
2017-04-15T04:02:23.171Z,9.25
2017-04-15T04:03:24.595Z,9.24
2017-04-15T04:04:25.901Z,9.3
2017-04-15T04:05:27.107Z,9.27
2017-04-15T04:06:28.382Z,9.25
2017-04-15T04:07:29.600Z,9.27
2017-04-15T04:08:30.830Z,9.27
2017-04-15T04:09:32.074Z,9.28
2017-04-15T04:10:33.311Z,9.25
2017-04-15T04:11:34.540Z,9.24
2017-04-15T04:12:35.860Z,9.3
2017-04-15T04:13:37.088Z,9.28
2017-04-15T04:14:38.327Z,9.28
2017-04-15T04:15:39.562Z,9.31
2017-04-15T04:16:40.841Z,9.28
2017-04-15T04:17:42.056Z,9.3
2017-04-15T04:18:43.301Z,9.27
2017-04-15T04:19:44.617Z,9.23
2017-04-15T04:20:45.817Z,9.3
2017-04-15T04:21:47.054Z,9.25
2017-04-15T04:22:48.291Z,9.24
2017-04-15T04:23:49.526Z,9.27
2017-04-15T04:24:50.914Z,9.25
2017-04-15T04:25:52.149Z,9.3
2017-04-15T04:26:53.563Z,9.24
2017-04-15T04:27:54.685Z,9.28
2017-04-15T04:28:55.948Z,9.28
2017-04-15T04:29:57.185Z,9.25
2017-04-15T04:30:58.419Z,9.3
2017-04-15T04:31:59.665Z,9.24
2017-04-15T04:33:00.905Z,9.24
2017-04-15T04:34:02.144Z,9.27
2017-04-15T04:35:03.371Z,9.25
2017-04-15T04:36:04.683Z,9.18
2017-04-15T04:37:06.234Z,9.21
2017-04-15T04:38:07.354Z,9.09
2017-04-15T04:39:08.692Z,9.16
2017-04-15T04:40:09.915Z,9.09
2017-04-15T04:41:11.148Z,9.13
2017-04-15T04:42:12.403Z,9.2
2017-04-15T04:43:13.646Z,9.13
2017-04-15T04:44:14.904Z,9.13
2017-04-15T04:45:16.105Z,9.13
2017-04-15T04:46:17.345Z,9.06
2017-04-15T04:47:18.592Z,9.13
2017-04-15T04:48:19.834Z,9.15
2017-04-15T04:49:21.082Z,9.02
2017-04-15T04:50:22.410Z,9.09
2017-04-15T04:51:23.656Z,9.04
2017-04-15T04:52:24.893Z,9.04
2017-04-15T04:53:26.140Z,9.04
2017-04-15T04:54:27.404Z,8.97
2017-04-15T04:55:28.662Z,8.93
2017-04-15T04:56:29.907Z,8.93
2017-04-15T04:57:31.152Z,8.93
2017-04-15T04:58:32.486Z,8.9
2017-04-15T04:59:33.722Z,8.87
2017-04-15T05:00:34.965Z,8.9
2017-04-15T05:01:36.238Z,8.83
2017-04-15T05:02:37.646Z,8.84
2017-04-15T05:03:39.036Z,8.86
2017-04-15T05:04:40.266Z,8.87
2017-04-15T05:05:41.526Z,8.78
2017-04-15T05:06:42.755Z,8.84
2017-04-15T05:07:44.008Z,8.83
2017-04-15T05:08:45.244Z,8.78
2017-04-15T05:09:46.489Z,8.87
2017-04-15T05:10:47.734Z,8.86
2017-04-15T05:11:48.970Z,8.79
2017-04-15T05:12:50.206Z,8.84
2017-04-15T05:13:51.444Z,8.83
2017-04-15T05:14:52.684Z,8.83
2017-04-15T05:15:53.924Z,8.86
2017-04-15T05:16:55.204Z,8.87
2017-04-15T05:17:56.513Z,8.79
2017-04-15T05:18:57.748Z,8.83
2017-04-15T05:19:58.983Z,8.83
2017-04-15T05:21:00.231Z,8.87
2017-04-15T05:22:01.487Z,8.83
2017-04-15T05:23:02.748Z,8.86
2017-04-15T05:24:03.982Z,8.83
2017-04-15T05:25:05.222Z,8.81
2017-04-15T05:26:06.474Z,8.78
2017-04-15T05:27:07.800Z,8.84
2017-04-15T05:28:09.055Z,8.91
2017-04-15T05:29:10.325Z,8.9
2017-04-15T05:30:11.565Z,8.86
2017-04-15T05:31:12.796Z,8.84
2017-04-15T05:32:14.042Z,8.87
2017-04-15T05:33:15.286Z,8.88
2017-04-15T05:34:16.573Z,8.87
2017-04-15T05:35:17.821Z,8.91
2017-04-15T05:36:19.097Z,8.88
2017-04-15T05:37:20.316Z,8.91
2017-04-15T05:38:21.566Z,8.88
2017-04-15T05:39:22.830Z,8.96
2017-04-15T05:40:24.095Z,8.93
2017-04-15T05:41:25.338Z,8.97
2017-04-15T05:42:26.629Z,8.91
2017-04-15T05:43:27.862Z,8.9
2017-04-15T05:44:29.106Z,8.88
2017-04-15T05:45:30.357Z,8.91
2017-04-15T05:46:31.593Z,8.93
2017-04-15T05:47:33.039Z,8.96
2017-04-15T05:48:34.361Z,8.94
2017-04-15T05:49:35.641Z,8.94
2017-04-15T05:50:36.828Z,8.93
2017-04-15T05:51:38.089Z,8.97
2017-04-15T05:52:39.329Z,8.96
2017-04-15T05:53:40.671Z,8.9
2017-04-15T05:54:41.998Z,8.96
2017-04-15T05:55:43.195Z,8.97
2017-04-15T05:56:44.432Z,8.9
2017-04-15T05:57:45.772Z,8.97
2017-04-15T05:58:47.182Z,8.94
2017-04-15T05:59:48.505Z,8.97
2017-04-15T06:00:49.755Z,8.93
2017-04-15T06:01:51.002Z,8.99
2017-04-15T06:02:52.370Z,8.97
2017-04-15T06:03:53.649Z,8.9
2017-04-15T06:04:54.884Z,8.94
2017-04-15T06:05:56.139Z,8.94
2017-04-15T06:06:57.369Z,8.97
2017-04-15T06:07:58.639Z,8.96
2017-04-15T06:08:59.863Z,8.94
2017-04-15T06:10:01.181Z,8.93
2017-04-15T06:11:02.480Z,8.93
2017-04-15T06:12:03.727Z,8.97
2017-04-15T06:13:04.978Z,9.04
2017-04-15T06:14:06.227Z,9.09
2017-04-15T06:15:07.455Z,8.97
2017-04-15T06:16:08.702Z,8.94
2017-04-15T06:17:09.958Z,9.06
2017-04-15T06:18:11.266Z,9.04
2017-04-15T06:19:12.518Z,9.01
2017-04-15T06:20:13.757Z,9.13
2017-04-15T06:21:15.040Z,9.15
2017-04-15T06:22:16.305Z,9.18
2017-04-15T06:23:17.537Z,9.06
2017-04-15T06:24:18.865Z,9.18
2017-04-15T06:25:20.175Z,9.23
2017-04-15T06:26:21.426Z,9.09
2017-04-15T06:27:22.717Z,9.09
2017-04-15T06:28:24.006Z,9.18
2017-04-15T06:29:25.299Z,9.15
2017-04-15T06:30:26.632Z,9.13
2017-04-15T06:31:27.866Z,9.16
2017-04-15T06:32:29.106Z,9.1
2017-04-15T06:33:30.420Z,9.09
2017-04-15T06:34:32.097Z,9.18
2017-04-15T06:35:33.304Z,9.16
2017-04-15T06:36:34.624Z,9.16
2017-04-15T06:37:35.868Z,9.16
2017-04-15T06:38:37.133Z,9.13
2017-04-15T06:39:38.465Z,9.18
2017-04-15T06:40:39.711Z,9.13
2017-04-15T06:41:40.968Z,9.09
2017-04-15T06:42:42.192Z,9.21
2017-04-15T06:43:43.525Z,9.09
2017-04-15T06:44:44.746Z,9.13
2017-04-15T06:45:45.985Z,9.23
2017-04-15T06:46:47.224Z,9.15
2017-04-15T06:47:48.534Z,9.12
2017-04-15T06:48:49.803Z,9.12
2017-04-15T06:49:51.031Z,9.2
2017-04-15T06:50:52.309Z,9.3
2017-04-15T06:51:53.533Z,9.25
2017-04-15T06:52:54.797Z,9.28
2017-04-15T06:53:56.146Z,9.25
2017-04-15T06:54:57.292Z,9.24
2017-04-15T06:55:58.494Z,9.43
2017-04-15T06:56:59.748Z,9.35
2017-04-15T06:58:00.987Z,9.38
2017-04-15T06:59:02.473Z,9.42
2017-04-15T07:00:03.727Z,9.46
2017-04-15T07:01:04.973Z,9.43
2017-04-15T07:02:06.176Z,9.43
2017-04-15T07:03:07.428Z,9.5
2017-04-15T07:04:08.669Z,9.46
2017-04-15T07:05:09.926Z,9.49
2017-04-15T07:06:11.195Z,9.52
2017-04-15T07:07:12.521Z,9.58
2017-04-15T07:08:13.766Z,9.58
2017-04-15T07:09:15.017Z,9.6
2017-04-15T07:10:16.248Z,9.61
2017-04-15T07:11:17.487Z,9.56
2017-04-15T07:12:18.794Z,9.58
2017-04-15T07:13:20.059Z,9.49
2017-04-15T07:14:21.296Z,9.56
2017-04-15T07:15:22.558Z,9.53
2017-04-15T07:16:23.795Z,9.52
2017-04-15T07:17:25.009Z,9.56
2017-04-15T07:18:26.284Z,9.53
2017-04-15T07:19:27.529Z,9.56
2017-04-15T07:20:28.849Z,9.46
2017-04-15T07:21:30.073Z,9.53
2017-04-15T07:22:31.329Z,9.53
2017-04-15T07:23:32.646Z,9.57
2017-04-15T07:24:33.898Z,9.52
2017-04-15T07:25:35.143Z,9.57
2017-04-15T07:26:36.380Z,9.52
2017-04-15T07:27:37.629Z,9.6
2017-04-15T07:28:38.876Z,9.57
2017-04-15T07:29:40.218Z,9.57
2017-04-15T07:30:41.488Z,9.52
2017-04-15T07:31:42.775Z,9.58
2017-04-15T07:32:44.039Z,9.63
2017-04-15T07:33:45.275Z,9.61
2017-04-15T07:34:46.645Z,9.56
2017-04-15T07:35:47.858Z,9.53
2017-04-15T07:36:49.093Z,9.6
2017-04-15T07:37:50.377Z,9.64
2017-04-15T07:38:51.771Z,9.7
2017-04-15T07:39:52.971Z,9.64
2017-04-15T07:40:54.355Z,9.7
2017-04-15T07:41:55.626Z,9.83
2017-04-15T07:42:56.875Z,9.86
2017-04-15T07:43:58.213Z,9.86
2017-04-15T07:44:59.635Z,10
2017-04-15T07:46:00.881Z,9.99
2017-04-15T07:47:02.160Z,10.1
2017-04-15T07:48:03.378Z,10.06
2017-04-15T07:49:04.653Z,10.1
2017-04-15T07:50:06.029Z,10.07
2017-04-15T07:51:07.157Z,10.01
2017-04-15T07:52:08.418Z,10
2017-04-15T07:53:09.649Z,10.1
2017-04-15T07:54:10.888Z,10.04
2017-04-15T07:55:12.135Z,10.07
2017-04-15T07:56:13.444Z,10.21
2017-04-15T07:57:14.715Z,10.36
2017-04-15T07:58:15.960Z,10.47
2017-04-15T07:59:17.225Z,10.66
2017-04-15T08:00:18.493Z,10.94
2017-04-15T08:01:19.769Z,11.09
2017-04-15T08:02:21.037Z,11.29
2017-04-15T08:03:22.289Z,11.65
2017-04-15T08:04:23.548Z,11.75
2017-04-15T08:05:24.777Z,12.04
2017-04-15T08:06:26.025Z,12.37
2017-04-15T08:07:27.271Z,12.63
2017-04-15T08:08:28.538Z,12.69
2017-04-15T08:09:29.769Z,12.63
2017-04-15T08:10:31.011Z,12.84
2017-04-15T08:11:32.278Z,12.88
2017-04-15T08:12:33.521Z,12.84
2017-04-15T08:13:34.757Z,12.84
2017-04-15T08:14:36.112Z,12.88
2017-04-15T08:15:37.382Z,12.75
2017-04-15T08:16:38.650Z,12.75
2017-04-15T08:17:39.892Z,12.6
2017-04-15T08:18:41.126Z,12.45
2017-04-15T08:19:42.410Z,12.38
2017-04-15T08:20:43.642Z,12.39
2017-04-15T08:21:44.878Z,12.26
2017-04-15T08:22:46.125Z,12.39
2017-04-15T08:23:47.361Z,12.44
2017-04-15T08:24:48.597Z,12.39
2017-04-15T08:25:49.854Z,12.42
2017-04-15T08:26:51.281Z,12.45
2017-04-15T08:27:52.534Z,12.38
2017-04-15T08:28:53.886Z,12.45
2017-04-15T08:29:55.004Z,12.54
2017-04-15T08:30:56.348Z,12.62
2017-04-15T08:31:57.572Z,12.62
2017-04-15T08:32:58.811Z,12.56
2017-04-15T08:34:00.060Z,12.66
2017-04-15T08:35:01.332Z,12.75
2017-04-15T08:36:02.572Z,12.7
2017-04-15T08:37:03.817Z,12.79
2017-04-15T08:38:05.039Z,12.92
2017-04-15T08:39:06.291Z,13.02
2017-04-15T08:40:07.535Z,13.09
2017-04-15T08:41:08.895Z,13.21
2017-04-15T08:42:10.171Z,13.33
2017-04-15T08:43:11.425Z,13.36
2017-04-15T08:44:12.674Z,13.58
2017-04-15T08:45:13.925Z,13.81
2017-04-15T08:46:15.201Z,14.06
2017-04-15T08:47:16.426Z,14.2
2017-04-15T08:48:17.659Z,14.44
2017-04-15T08:49:18.906Z,14.56
2017-04-15T08:50:20.175Z,14.62
2017-04-15T08:51:21.423Z,14.65
2017-04-15T08:52:22.667Z,14.91
2017-04-15T08:53:23.916Z,15.12
2017-04-15T08:54:25.253Z,15.39
2017-04-15T08:55:26.532Z,15.49
2017-04-15T08:56:27.807Z,15.81
2017-04-15T08:57:29.070Z,15.93
2017-04-15T08:58:30.357Z,16.12
2017-04-15T08:59:31.620Z,15.94
2017-04-15T09:00:33.053Z,15.85
2017-04-15T09:01:34.312Z,15.66
2017-04-15T09:02:35.542Z,15.52
2017-04-15T09:03:36.806Z,15.33
2017-04-15T09:04:38.060Z,15.21
2017-04-15T09:05:39.310Z,15.19
2017-04-15T09:06:40.580Z,15.3
2017-04-15T09:07:41.839Z,15.45
2017-04-15T09:08:43.166Z,15.39
2017-04-15T09:09:44.446Z,15.23
2017-04-15T09:10:45.663Z,15.09
2017-04-15T09:11:46.912Z,15.15
2017-04-15T09:12:48.271Z,14.88
2017-04-15T09:13:49.516Z,14.62
2017-04-15T09:14:50.750Z,14.56
2017-04-15T09:15:51.989Z,14.34
2017-04-15T09:16:53.283Z,14.29
2017-04-15T09:17:54.585Z,14.14
2017-04-15T09:18:55.806Z,14.09
2017-04-15T09:19:57.045Z,13.94
2017-04-15T09:20:58.322Z,13.91
2017-04-15T09:21:59.575Z,13.95
2017-04-15T09:23:00.836Z,13.87
2017-04-15T09:24:02.094Z,13.92
2017-04-15T09:25:03.446Z,13.96
2017-04-15T09:26:04.696Z,13.84
2017-04-15T09:27:05.938Z,13.87
2017-04-15T09:28:07.188Z,13.99
2017-04-15T09:29:08.520Z,13.92
2017-04-15T09:30:09.767Z,13.94
2017-04-15T09:31:11.117Z,13.94
2017-04-15T09:32:12.380Z,13.89
2017-04-15T09:33:13.602Z,13.94
2017-04-15T09:34:14.860Z,13.94
2017-04-15T09:35:16.116Z,13.8
2017-04-15T09:36:17.372Z,13.88
2017-04-15T09:37:18.670Z,13.88
2017-04-15T09:38:19.920Z,13.92
2017-04-15T09:39:21.158Z,13.76
2017-04-15T09:40:22.397Z,13.7
2017-04-15T09:41:23.646Z,13.69
2017-04-15T09:42:24.906Z,13.59
2017-04-15T09:43:26.167Z,13.54
2017-04-15T09:44:27.399Z,13.33
2017-04-15T09:45:28.744Z,13.25
2017-04-15T09:46:30.004Z,13.22
2017-04-15T09:47:31.240Z,13.06
2017-04-15T09:48:32.547Z,12.95
2017-04-15T09:49:33.772Z,12.93
2017-04-15T09:50:35.076Z,12.92
2017-04-15T09:51:36.417Z,12.89
2017-04-15T09:52:37.645Z,12.81
2017-04-15T09:53:38.903Z,12.7
2017-04-15T09:54:40.173Z,12.7
2017-04-15T09:55:41.404Z,12.59
2017-04-15T09:56:42.675Z,12.41
2017-04-15T09:57:43.914Z,12.29
2017-04-15T09:58:45.163Z,12.3
2017-04-15T09:59:46.647Z,12.27
2017-04-15T10:00:47.888Z,12.27
2017-04-15T10:01:49.177Z,12.16
2017-04-15T10:02:50.435Z,12.13
2017-04-15T10:03:51.668Z,12.16
2017-04-15T10:04:52.894Z,12.06
2017-04-15T10:05:54.138Z,12.05
2017-04-15T10:06:55.466Z,12.02
2017-04-15T10:07:56.715Z,12.04
2017-04-15T10:08:58.096Z,12.08
2017-04-15T10:09:59.331Z,12.19
2017-04-15T10:11:00.588Z,12.08
2017-04-15T10:12:01.794Z,12.12
2017-04-15T10:13:03.041Z,12.19
2017-04-15T10:14:04.442Z,12.2
2017-04-15T10:15:05.658Z,12.2
2017-04-15T10:16:06.900Z,12.16
2017-04-15T10:17:08.133Z,12.08
2017-04-15T10:18:09.400Z,12.08
2017-04-15T10:19:10.734Z,12.08
2017-04-15T10:20:12.140Z,12.08
2017-04-15T10:21:13.320Z,12.06
2017-04-15T10:22:14.551Z,12.2
2017-04-15T10:23:15.797Z,12.2
2017-04-15T10:24:17.051Z,12.12
2017-04-15T10:25:18.350Z,12.26
2017-04-15T10:26:19.591Z,12.29
2017-04-15T10:27:20.854Z,12.49
2017-04-15T10:28:22.116Z,12.52
2017-04-15T10:29:23.340Z,12.69
2017-04-15T10:30:24.695Z,12.69
2017-04-15T10:31:25.931Z,12.71
2017-04-15T10:32:27.183Z,12.67
2017-04-15T10:33:28.474Z,12.7
2017-04-15T10:34:29.785Z,12.71
2017-04-15T10:35:31.160Z,12.7
2017-04-15T10:36:32.389Z,12.71
2017-04-15T10:37:33.630Z,12.71
2017-04-15T10:38:34.877Z,12.87
2017-04-15T10:39:36.220Z,12.97
2017-04-15T10:40:37.431Z,13.06
2017-04-15T10:41:38.674Z,13.14
2017-04-15T10:42:39.905Z,13.32
2017-04-15T10:43:41.250Z,13.52
2017-04-15T10:44:42.508Z,13.74
2017-04-15T10:45:43.800Z,13.91
2017-04-15T10:46:45.144Z,13.96
2017-04-15T10:47:46.354Z,14.13
2017-04-15T10:48:47.591Z,14.21
2017-04-15T10:49:48.919Z,14.52
2017-04-15T10:50:50.287Z,14.9
2017-04-15T10:51:51.443Z,15.03
2017-04-15T10:52:52.726Z,15.13
2017-04-15T10:53:53.943Z,15.45
2017-04-15T10:54:55.221Z,15.48
2017-04-15T10:55:56.471Z,15.59
2017-04-15T10:56:57.736Z,15.6
2017-04-15T10:57:58.984Z,15.52
2017-04-15T10:59:00.258Z,15.57
2017-04-15T11:00:01.483Z,15.64
2017-04-15T11:01:02.733Z,15.67
2017-04-15T11:02:03.949Z,15.84
2017-04-15T11:03:05.316Z,15.79
2017-04-15T11:04:06.576Z,15.96
2017-04-15T11:05:07.880Z,15.88
2017-04-15T11:06:09.144Z,15.94
2017-04-15T11:07:10.379Z,15.93
2017-04-15T11:08:11.627Z,15.92
2017-04-15T11:09:12.874Z,15.68
2017-04-15T11:10:14.222Z,15.61
2017-04-15T11:11:15.537Z,15.45
2017-04-15T11:12:16.820Z,15.39
2017-04-15T11:13:18.047Z,15.38
2017-04-15T11:14:19.298Z,15.39
2017-04-15T11:15:20.550Z,15.39
2017-04-15T11:16:21.807Z,15.15
2017-04-15T11:17:23.045Z,15.06
2017-04-15T11:18:24.354Z,15.15
2017-04-15T11:19:25.567Z,15.09
2017-04-15T11:20:26.802Z,15.02
2017-04-15T11:21:28.102Z,14.87
2017-04-15T11:22:29.348Z,14.72
2017-04-15T11:23:30.599Z,14.65
2017-04-15T11:24:31.843Z,14.71
2017-04-15T11:25:33.083Z,14.64
2017-04-15T11:26:34.324Z,14.54
2017-04-15T11:27:35.557Z,14.52
2017-04-15T11:28:36.808Z,14.42
2017-04-15T11:29:38.047Z,14.39
2017-04-15T11:30:39.293Z,14.32
2017-04-15T11:31:40.535Z,14.32
2017-04-15T11:32:41.826Z,14.19
2017-04-15T11:33:43.111Z,14.19
2017-04-15T11:34:44.372Z,14.17
2017-04-15T11:35:45.586Z,14.16
2017-04-15T11:36:46.838Z,13.94
2017-04-15T11:37:48.085Z,13.98
2017-04-15T11:38:49.338Z,13.79
2017-04-15T11:39:50.730Z,13.74
2017-04-15T11:40:51.991Z,13.73
2017-04-15T11:41:53.355Z,13.74
2017-04-15T11:42:54.595Z,13.89
2017-04-15T11:43:55.860Z,13.88
2017-04-15T11:44:57.096Z,13.95
2017-04-15T11:45:58.357Z,14.24
2017-04-15T11:46:59.636Z,14.34
2017-04-15T11:48:01.000Z,14.6
2017-04-15T11:49:02.285Z,14.69
2017-04-15T11:50:03.522Z,14.81
2017-04-15T11:51:04.924Z,14.8
2017-04-15T11:52:06.337Z,14.95
2017-04-15T11:53:07.614Z,14.8
2017-04-15T11:54:08.856Z,14.81
2017-04-15T11:55:10.141Z,14.88
2017-04-15T11:56:11.381Z,14.99
2017-04-15T11:57:12.763Z,14.98
2017-04-15T11:58:14.033Z,14.99
2017-04-15T11:59:15.360Z,14.91
2017-04-15T12:00:16.578Z,15.09
2017-04-15T12:01:17.840Z,15.08
2017-04-15T12:02:19.047Z,15.21
2017-04-15T12:03:20.300Z,15.23
2017-04-15T12:04:21.634Z,15.19
2017-04-15T12:05:22.911Z,15.12
2017-04-15T12:06:24.172Z,14.95
2017-04-15T12:07:25.394Z,14.8
2017-04-15T12:08:26.692Z,14.61
2017-04-15T12:09:27.943Z,14.56
2017-04-15T12:10:29.257Z,14.35
2017-04-15T12:11:30.506Z,14.32
2017-04-15T12:12:31.902Z,14.1
2017-04-15T12:13:33.168Z,14.04
2017-04-15T12:14:34.379Z,13.76
2017-04-15T12:15:35.622Z,13.52
2017-04-15T12:16:36.865Z,13.41
2017-04-15T12:17:38.279Z,13.33
2017-04-15T12:18:39.437Z,13.41
2017-04-15T12:19:40.659Z,13.47
2017-04-15T12:20:41.922Z,13.67
2017-04-15T12:21:43.202Z,13.94
2017-04-15T12:22:44.662Z,14.19
2017-04-15T12:23:45.840Z,14.43
2017-04-15T12:24:47.100Z,14.53
2017-04-15T12:25:48.339Z,14.72
2017-04-15T12:26:49.617Z,14.9
2017-04-15T12:27:50.961Z,15.12
2017-04-15T12:28:52.237Z,15.21
2017-04-15T12:29:53.533Z,15.27
2017-04-15T12:30:54.875Z,15.42
2017-04-15T12:31:56.114Z,15.46
2017-04-15T12:32:57.362Z,15.39
2017-04-15T12:33:58.652Z,15.43
2017-04-15T12:34:59.901Z,15.45
2017-04-15T12:36:01.136Z,15.68
2017-04-15T12:37:02.388Z,15.86
2017-04-15T12:38:03.623Z,15.86
2017-04-15T12:39:04.873Z,16.09
2017-04-15T12:40:06.156Z,16.09
2017-04-15T12:41:07.447Z,15.97
2017-04-15T12:42:08.807Z,15.97
2017-04-15T12:43:10.046Z,15.97
2017-04-15T12:44:11.285Z,15.92
2017-04-15T12:45:12.547Z,15.97
2017-04-15T12:46:13.790Z,16.01
2017-04-15T12:47:15.073Z,15.94
2017-04-15T12:48:16.311Z,15.86
2017-04-15T12:49:17.548Z,15.66
2017-04-15T12:50:18.814Z,15.6
2017-04-15T12:51:20.073Z,15.51
2017-04-15T12:52:21.409Z,15.54
2017-04-15T12:53:22.728Z,15.41
2017-04-15T12:54:24.086Z,15.36
2017-04-15T12:55:25.336Z,15.36
2017-04-15T12:56:26.572Z,15.43
2017-04-15T12:57:28.017Z,15.54
2017-04-15T12:58:29.367Z,15.72
2017-04-15T12:59:30.599Z,15.72
2017-04-15T13:00:31.942Z,15.82
2017-04-15T13:01:33.228Z,15.89
2017-04-15T13:02:34.484Z,15.75
2017-04-15T13:03:35.778Z,15.7
2017-04-15T13:04:37.016Z,15.85
2017-04-15T13:05:38.323Z,15.99
2017-04-15T13:06:39.564Z,15.94
2017-04-15T13:07:40.847Z,15.93
2017-04-15T13:08:42.088Z,15.89
2017-04-15T13:09:43.389Z,15.96
2017-04-15T13:10:44.670Z,15.92
2017-04-15T13:11:46.069Z,15.86
2017-04-15T13:12:47.298Z,15.85
2017-04-15T13:13:48.545Z,15.7
2017-04-15T13:14:49.786Z,15.74
2017-04-15T13:15:51.105Z,15.57
2017-04-15T13:16:52.353Z,15.57
2017-04-15T13:17:53.582Z,15.52
2017-04-15T13:18:54.852Z,15.42
2017-04-15T13:19:56.082Z,15.43
2017-04-15T13:20:57.344Z,15.42
2017-04-15T13:21:58.621Z,15.43
2017-04-15T13:22:59.862Z,15.31
2017-04-15T13:24:01.117Z,15.36
2017-04-15T13:25:02.360Z,15.41
2017-04-15T13:26:03.626Z,15.51